sensor_id;sensor_type;location;lat;lon;timestamp;P1;durP1;ratioP1;P2;durP2;ratioP2
18647;SDS011;9453;50.294;18.644;2023-09-19T04:03:25;15.25;;;10.45;;
18647;SDS011;9453;50.294;18.644;2023-09-19T04:06:00;14.13;;;9.95;;
18647;SDS011;9453;50.294;18.644;2023-09-19T04:08:27;16.20;;;10.43;;
18647;SDS011;9453;50.294;18.644;2023-09-19T04:10:54;16.08;;;11.30;;
18647;SDS011;9453;50.294;18.644;2023-09-19T04:13:21;19.15;;;11.73;;
18647;SDS011;9453;50.294;18.644;2023-09-19T04:15:49;22.05;;;12.38;;
18647;SDS011;9453;50.294;18.644;2023-09-19T04:18:15;21.40;;;11.57;;
18647;SDS011;9453;50.294;18.644;2023-09-19T04:20:48;16.83;;;12.15;;
18647;SDS011;9453;50.294;18.644;2023-09-19T04:23:15;18.30;;;12.35;;
18647;SDS011;9453;50.294;18.644;2023-09-19T04:25:45;16.20;;;11.05;;
18647;SDS011;9453;50.294;18.644;2023-09-19T04:28:12;18.60;;;12.00;;
18647;SDS011;9453;50.294;18.644;2023-09-19T04:30:39;20.25;;;11.75;;
18647;SDS011;9453;50.294;18.644;2023-09-19T04:33:06;17.05;;;10.95;;
18647;SDS011;9453;50.294;18.644;2023-09-19T04:35:33;15.13;;;10.15;;
18647;SDS011;9453;50.294;18.644;2023-09-19T04:38:02;17.30;;;11.68;;
18647;SDS011;9453;50.294;18.644;2023-09-19T04:40:31;19.25;;;12.70;;
18647;SDS011;9453;50.294;18.644;2023-09-19T04:42:59;20.63;;;13.75;;
18647;SDS011;9453;50.294;18.644;2023-09-19T04:45:26;22.38;;;14.65;;
18647;SDS011;9453;50.294;18.644;2023-09-19T04:47:54;25.15;;;14.57;;
18647;SDS011;9453;50.294;18.644;2023-09-19T04:50:22;30.88;;;14.40;;
18647;SDS011;9453;50.294;18.644;2023-09-19T04:52:53;24.15;;;14.07;;
18647;SDS011;9453;50.294;18.644;2023-09-19T04:55:21;24.20;;;13.88;;
18647;SDS011;9453;50.294;18.644;2023-09-19T04:57:48;22.10;;;13.88;;
18647;SDS011;9453;50.294;18.644;2023-09-19T05:00:18;21.35;;;13.48;;
18647;SDS011;9453;50.294;18.644;2023-09-19T05:02:48;20.92;;;13.80;;
18647;SDS011;9453;50.294;18.644;2023-09-19T05:05:16;18.85;;;13.27;;
18647;SDS011;9453;50.294;18.644;2023-09-19T05:07:44;15.35;;;10.98;;
18647;SDS011;9453;50.294;18.644;2023-09-19T05:10:12;17.35;;;11.68;;
18647;SDS011;9453;50.294;18.644;2023-09-19T05:12:41;16.65;;;10.75;;
18647;SDS011;9453;50.294;18.644;2023-09-19T05:15:10;23.63;;;12.10;;
18647;SDS011;9453;50.294;18.644;2023-09-19T05:17:37;17.75;;;11.35;;
18647;SDS011;9453;50.294;18.644;2023-09-19T05:20:05;25.95;;;11.23;;
18647;SDS011;9453;50.294;18.644;2023-09-19T05:22:40;15.90;;;9.75;;
18647;SDS011;9453;50.294;18.644;2023-09-19T05:25:08;14.77;;;8.00;;
18647;SDS011;9453;50.294;18.644;2023-09-19T05:27:36;14.18;;;7.30;;
18647;SDS011;9453;50.294;18.644;2023-09-19T05:30:05;13.90;;;7.07;;
18647;SDS011;9453;50.294;18.644;2023-09-19T05:32:33;14.10;;;7.43;;
18647;SDS011;9453;50.294;18.644;2023-09-19T05:35:02;13.50;;;6.88;;
18647;SDS011;9453;50.294;18.644;2023-09-19T05:37:33;9.82;;;6.75;;
18647;SDS011;9453;50.294;18.644;2023-09-19T05:40:02;12.02;;;7.43;;
18647;SDS011;9453;50.294;18.644;2023-09-19T05:42:34;11.05;;;6.93;;
18647;SDS011;9453;50.294;18.644;2023-09-19T05:45:01;11.10;;;6.82;;
18647;SDS011;9453;50.294;18.644;2023-09-19T05:47:32;11.40;;;6.65;;
18647;SDS011;9453;50.294;18.644;2023-09-19T05:49:59;11.20;;;6.47;;
18647;SDS011;9453;50.294;18.644;2023-09-19T05:52:27;12.80;;;6.35;;
18647;SDS011;9453;50.294;18.644;2023-09-19T05:54:55;13.95;;;6.93;;
18647;SDS011;9453;50.294;18.644;2023-09-19T05:57:22;9.10;;;6.20;;
18647;SDS011;9453;50.294;18.644;2023-09-19T05:59:50;12.68;;;6.80;;
18647;SDS011;9453;50.294;18.644;2023-09-19T06:02:17;10.60;;;5.90;;
18647;SDS011;9453;50.294;18.644;2023-09-19T06:04:46;12.23;;;6.35;;
18647;SDS011;9453;50.294;18.644;2023-09-19T06:07:13;10.55;;;6.50;;
18647;SDS011;9453;50.294;18.644;2023-09-19T06:09:41;10.30;;;5.75;;
18647;SDS011;9453;50.294;18.644;2023-09-19T06:12:08;8.10;;;5.28;;
18647;SDS011;9453;50.294;18.644;2023-09-19T06:14:38;8.73;;;5.72;;
18647;SDS011;9453;50.294;18.644;2023-09-19T06:17:06;12.48;;;5.50;;
18647;SDS011;9453;50.294;18.644;2023-09-19T06:19:33;8.98;;;4.38;;
18647;SDS011;9453;50.294;18.644;2023-09-19T06:22:02;10.57;;;4.50;;
18647;SDS011;9453;50.294;18.644;2023-09-19T06:24:29;10.43;;;4.28;;
18647;SDS011;9453;50.294;18.644;2023-09-19T06:26:56;9.63;;;3.90;;
18647;SDS011;9453;50.294;18.644;2023-09-19T06:29:26;5.95;;;3.95;;
18647;SDS011;9453;50.294;18.644;2023-09-19T06:31:53;6.45;;;3.63;;
18647;SDS011;9453;50.294;18.644;2023-09-19T06:34:20;9.63;;;3.67;;
18647;SDS011;9453;50.294;18.644;2023-09-19T06:36:47;7.22;;;3.83;;
18647;SDS011;9453;50.294;18.644;2023-09-19T06:39:16;7.70;;;3.90;;
18647;SDS011;9453;50.294;18.644;2023-09-19T06:41:43;7.15;;;3.88;;
18647;SDS011;9453;50.294;18.644;2023-09-19T06:44:11;9.55;;;4.00;;
18647;SDS011;9453;50.294;18.644;2023-09-19T06:46:38;7.90;;;3.95;;
18647;SDS011;9453;50.294;18.644;2023-09-19T06:49:07;7.43;;;3.83;;
18647;SDS011;9453;50.294;18.644;2023-09-19T06:51:35;4.95;;;3.15;;
18647;SDS011;9453;50.294;18.644;2023-09-19T06:54:03;10.05;;;3.40;;
18647;SDS011;9453;50.294;18.644;2023-09-19T06:56:31;5.82;;;3.35;;
18647;SDS011;9453;50.294;18.644;2023-09-19T06:58:58;7.97;;;4.50;;
18647;SDS011;9453;50.294;18.644;2023-09-19T07:01:27;6.60;;;3.22;;
18647;SDS011;9453;50.294;18.644;2023-09-19T07:03:54;7.70;;;3.20;;
18647;SDS011;9453;50.294;18.644;2023-09-19T07:06:21;7.00;;;3.08;;
18647;SDS011;9453;50.294;18.644;2023-09-19T07:08:49;2.95;;;2.40;;
18647;SDS011;9453;50.294;18.644;2023-09-19T07:11:16;5.05;;;3.28;;
18647;SDS011;9453;50.294;18.644;2023-09-19T07:13:45;8.20;;;2.60;;
18647;SDS011;9453;50.294;18.644;2023-09-19T07:16:12;5.03;;;2.47;;
18647;SDS011;9453;50.294;18.644;2023-09-19T07:18:52;4.90;;;2.58;;
18647;SDS011;9453;50.294;18.644;2023-09-19T07:21:20;5.80;;;3.03;;
18647;SDS011;9453;50.294;18.644;2023-09-19T07:23:47;6.60;;;3.10;;
18647;SDS011;9453;50.294;18.644;2023-09-19T07:26:14;5.85;;;2.80;;
18647;SDS011;9453;50.294;18.644;2023-09-19T07:28:42;8.70;;;3.35;;
18647;SDS011;9453;50.294;18.644;2023-09-19T07:31:10;6.85;;;3.00;;
18647;SDS011;9453;50.294;18.644;2023-09-19T07:33:39;6.90;;;3.58;;
18647;SDS011;9453;50.294;18.644;2023-09-19T07:36:09;8.32;;;3.15;;
18647;SDS011;9453;50.294;18.644;2023-09-19T07:38:38;5.97;;;3.13;;
18647;SDS011;9453;50.294;18.644;2023-09-19T07:41:06;8.20;;;3.90;;
18647;SDS011;9453;50.294;18.644;2023-09-19T07:43:35;11.27;;;3.78;;
18647;SDS011;9453;50.294;18.644;2023-09-19T07:46:04;8.48;;;3.55;;
18647;SDS011;9453;50.294;18.644;2023-09-19T07:48:35;10.13;;;3.85;;
18647;SDS011;9453;50.294;18.644;2023-09-19T07:51:03;9.98;;;3.78;;
18647;SDS011;9453;50.294;18.644;2023-09-19T07:53:31;8.63;;;4.22;;
18647;SDS011;9453;50.294;18.644;2023-09-19T07:56:03;11.60;;;4.50;;
18647;SDS011;9453;50.294;18.644;2023-09-19T07:58:31;11.27;;;4.22;;
18647;SDS011;9453;50.294;18.644;2023-09-19T08:01:02;11.95;;;4.45;;
18647;SDS011;9453;50.294;18.644;2023-09-19T08:03:30;10.10;;;3.50;;
18647;SDS011;9453;50.294;18.644;2023-09-19T08:05:58;7.05;;;3.40;;
18647;SDS011;9453;50.294;18.644;2023-09-19T08:08:25;9.77;;;3.53;;
18647;SDS011;9453;50.294;18.644;2023-09-19T08:10:53;4.95;;;3.03;;
18647;SDS011;9453;50.294;18.644;2023-09-19T08:13:21;4.85;;;2.70;;
18647;SDS011;9453;50.294;18.644;2023-09-19T08:15:49;7.45;;;3.10;;
18647;SDS011;9453;50.294;18.644;2023-09-19T08:18:18;6.38;;;3.60;;
18647;SDS011;9453;50.294;18.644;2023-09-19T08:20:49;4.13;;;2.80;;
18647;SDS011;9453;50.294;18.644;2023-09-19T08:23:18;8.80;;;3.53;;
18647;SDS011;9453;50.294;18.644;2023-09-19T08:25:46;3.92;;;3.00;;
18647;SDS011;9453;50.294;18.644;2023-09-19T08:28:13;10.00;;;3.25;;
18647;SDS011;9453;50.294;18.644;2023-09-19T08:30:44;7.38;;;3.97;;
18647;SDS011;9453;50.294;18.644;2023-09-19T08:33:11;8.88;;;4.10;;
18647;SDS011;9453;50.294;18.644;2023-09-19T08:35:40;5.75;;;3.78;;
18647;SDS011;9453;50.294;18.644;2023-09-19T08:38:08;5.47;;;3.30;;
18647;SDS011;9453;50.294;18.644;2023-09-19T08:40:38;5.82;;;3.22;;
18647;SDS011;9453;50.294;18.644;2023-09-19T08:43:07;6.28;;;3.55;;
18647;SDS011;9453;50.294;18.644;2023-09-19T08:45:34;6.82;;;3.10;;
18647;SDS011;9453;50.294;18.644;2023-09-19T08:48:05;6.93;;;3.03;;
18647;SDS011;9453;50.294;18.644;2023-09-19T08:50:43;9.13;;;3.55;;
18647;SDS011;9453;50.294;18.644;2023-09-19T08:53:15;5.35;;;3.60;;
18647;SDS011;9453;50.294;18.644;2023-09-19T08:55:49;6.43;;;3.97;;
18647;SDS011;9453;50.294;18.644;2023-09-19T08:58:19;8.70;;;3.72;;
18647;SDS011;9453;50.294;18.644;2023-09-19T09:00:48;7.55;;;3.70;;
18647;SDS011;9453;50.294;18.644;2023-09-19T09:03:16;5.13;;;3.15;;
18647;SDS011;9453;50.294;18.644;2023-09-19T09:05:46;7.20;;;2.95;;
18647;SDS011;9453;50.294;18.644;2023-09-19T09:08:16;6.90;;;2.90;;
18647;SDS011;9453;50.294;18.644;2023-09-19T09:10:46;7.40;;;3.17;;
18647;SDS011;9453;50.294;18.644;2023-09-19T09:13:15;7.93;;;3.03;;
18647;SDS011;9453;50.294;18.644;2023-09-19T09:15:43;10.38;;;3.50;;
18647;SDS011;9453;50.294;18.644;2023-09-19T09:18:10;4.97;;;2.75;;
18647;SDS011;9453;50.294;18.644;2023-09-19T09:20:38;7.40;;;2.80;;
18647;SDS011;9453;50.294;18.644;2023-09-19T09:23:06;8.63;;;2.75;;
18647;SDS011;9453;50.294;18.644;2023-09-19T09:28:21;5.45;;;2.70;;
18647;SDS011;9453;50.294;18.644;2023-09-19T09:30:51;9.55;;;3.15;;
18647;SDS011;9453;50.294;18.644;2023-09-19T09:33:18;6.63;;;2.45;;
18647;SDS011;9453;50.294;18.644;2023-09-19T09:35:50;4.70;;;3.00;;
18647;SDS011;9453;50.294;18.644;2023-09-19T09:38:22;7.03;;;3.00;;
18647;SDS011;9453;50.294;18.644;2023-09-19T09:40:54;6.40;;;2.95;;
18647;SDS011;9453;50.294;18.644;2023-09-19T09:43:28;5.15;;;2.67;;
18647;SDS011;9453;50.294;18.644;2023-09-19T09:46:06;13.05;;;3.22;;
18647;SDS011;9453;50.294;18.644;2023-09-19T09:48:58;5.22;;;3.15;;
18647;SDS011;9453;50.294;18.644;2023-09-19T09:51:45;6.90;;;3.58;;
18647;SDS011;9453;50.294;18.644;2023-09-19T09:54:23;4.38;;;2.97;;
18647;SDS011;9453;50.294;18.644;2023-09-19T09:56:57;8.40;;;2.92;;
18647;SDS011;9453;50.294;18.644;2023-09-19T10:02:12;3.63;;;2.33;;
18647;SDS011;9453;50.294;18.644;2023-09-19T10:04:41;7.72;;;2.80;;
18647;SDS011;9453;50.294;18.644;2023-09-19T10:07:26;2.92;;;2.38;;
18647;SDS011;9453;50.294;18.644;2023-09-19T10:09:56;6.32;;;3.10;;
18647;SDS011;9453;50.294;18.644;2023-09-19T10:12:36;3.97;;;2.50;;
18647;SDS011;9453;50.294;18.644;2023-09-19T10:15:08;3.90;;;2.95;;
18647;SDS011;9453;50.294;18.644;2023-09-19T10:17:40;6.10;;;3.50;;
18647;SDS011;9453;50.294;18.644;2023-09-19T10:20:12;4.93;;;3.03;;
18647;SDS011;9453;50.294;18.644;2023-09-19T10:23:03;3.90;;;2.13;;
18647;SDS011;9453;50.294;18.644;2023-09-19T10:25:39;3.17;;;1.90;;
18647;SDS011;9453;50.294;18.644;2023-09-19T10:28:09;4.63;;;2.15;;
18647;SDS011;9453;50.294;18.644;2023-09-19T10:30:39;2.35;;;1.88;;
18647;SDS011;9453;50.294;18.644;2023-09-19T10:33:10;3.78;;;2.10;;
18647;SDS011;9453;50.294;18.644;2023-09-19T10:35:38;4.30;;;1.85;;
18647;SDS011;9453;50.294;18.644;2023-09-19T10:38:09;4.18;;;2.20;;
18647;SDS011;9453;50.294;18.644;2023-09-19T10:40:37;3.83;;;2.10;;
18647;SDS011;9453;50.294;18.644;2023-09-19T10:43:11;4.30;;;2.05;;
18647;SDS011;9453;50.294;18.644;2023-09-19T10:45:40;2.78;;;1.90;;
18647;SDS011;9453;50.294;18.644;2023-09-19T10:48:07;4.97;;;2.05;;
18647;SDS011;9453;50.294;18.644;2023-09-19T10:50:41;4.50;;;2.00;;
18647;SDS011;9453;50.294;18.644;2023-09-19T10:53:14;3.28;;;1.90;;
18647;SDS011;9453;50.294;18.644;2023-09-19T10:55:47;2.10;;;1.60;;
18647;SDS011;9453;50.294;18.644;2023-09-19T10:58:29;2.83;;;1.90;;
18647;SDS011;9453;50.294;18.644;2023-09-19T11:01:00;3.50;;;1.85;;
18647;SDS011;9453;50.294;18.644;2023-09-19T11:03:37;2.55;;;2.00;;
18647;SDS011;9453;50.294;18.644;2023-09-19T11:06:09;2.95;;;1.90;;
18647;SDS011;9453;50.294;18.644;2023-09-19T11:08:52;3.42;;;1.83;;
18647;SDS011;9453;50.294;18.644;2023-09-19T11:11:39;3.22;;;2.05;;
18647;SDS011;9453;50.294;18.644;2023-09-19T11:14:32;2.67;;;1.80;;
18647;SDS011;9453;50.294;18.644;2023-09-19T11:20:24;4.03;;;2.45;;
18647;SDS011;9453;50.294;18.644;2023-09-19T11:23:17;4.55;;;2.50;;
18647;SDS011;9453;50.294;18.644;2023-09-19T11:25:56;6.03;;;3.13;;
18647;SDS011;9453;50.294;18.644;2023-09-19T11:28:29;10.05;;;3.10;;
18647;SDS011;9453;50.294;18.644;2023-09-19T11:30:58;7.78;;;3.05;;
18647;SDS011;9453;50.294;18.644;2023-09-19T11:33:25;5.85;;;2.80;;
18647;SDS011;9453;50.294;18.644;2023-09-19T11:35:58;4.03;;;2.28;;
18647;SDS011;9453;50.294;18.644;2023-09-19T11:41:38;5.85;;;2.25;;
18647;SDS011;9453;50.294;18.644;2023-09-19T11:47:00;5.90;;;2.65;;
18647;SDS011;9453;50.294;18.644;2023-09-19T11:49:29;4.05;;;2.05;;
18647;SDS011;9453;50.294;18.644;2023-09-19T11:51:58;5.13;;;2.67;;
18647;SDS011;9453;50.294;18.644;2023-09-19T11:54:30;4.40;;;2.40;;
18647;SDS011;9453;50.294;18.644;2023-09-19T11:56:58;7.80;;;2.50;;
18647;SDS011;9453;50.294;18.644;2023-09-19T11:59:28;4.68;;;2.72;;
18647;SDS011;9453;50.294;18.644;2023-09-19T12:01:56;4.85;;;2.40;;
18647;SDS011;9453;50.294;18.644;2023-09-19T12:04:36;5.22;;;2.42;;
18647;SDS011;9453;50.294;18.644;2023-09-19T12:07:06;4.53;;;2.80;;
18647;SDS011;9453;50.294;18.644;2023-09-19T12:09:40;6.93;;;2.80;;
18647;SDS011;9453;50.294;18.644;2023-09-19T12:12:09;9.23;;;2.97;;
18647;SDS011;9453;50.294;18.644;2023-09-19T12:14:40;5.82;;;2.55;;
18647;SDS011;9453;50.294;18.644;2023-09-19T12:17:08;6.88;;;2.60;;
18647;SDS011;9453;50.294;18.644;2023-09-19T12:19:36;5.45;;;2.28;;
18647;SDS011;9453;50.294;18.644;2023-09-19T12:22:03;4.22;;;2.10;;
18647;SDS011;9453;50.294;18.644;2023-09-19T12:25:05;3.90;;;2.40;;
18647;SDS011;9453;50.294;18.644;2023-09-19T12:27:41;4.32;;;2.10;;
18647;SDS011;9453;50.294;18.644;2023-09-19T12:30:09;3.78;;;1.90;;
18647;SDS011;9453;50.294;18.644;2023-09-19T12:32:39;4.18;;;2.20;;
18647;SDS011;9453;50.294;18.644;2023-09-19T12:35:08;3.13;;;2.05;;
18647;SDS011;9453;50.294;18.644;2023-09-19T12:37:36;4.90;;;2.47;;
18647;SDS011;9453;50.294;18.644;2023-09-19T12:40:04;4.45;;;2.25;;
18647;SDS011;9453;50.294;18.644;2023-09-19T12:42:42;6.40;;;2.72;;
18647;SDS011;9453;50.294;18.644;2023-09-19T12:45:10;3.92;;;2.30;;
18647;SDS011;9453;50.294;18.644;2023-09-19T12:47:38;5.35;;;2.33;;
18647;SDS011;9453;50.294;18.644;2023-09-19T12:50:10;3.15;;;2.03;;
18647;SDS011;9453;50.294;18.644;2023-09-19T12:52:43;3.75;;;2.20;;
18647;SDS011;9453;50.294;18.644;2023-09-19T12:55:22;5.45;;;2.63;;
18647;SDS011;9453;50.294;18.644;2023-09-19T12:58:00;8.25;;;2.35;;
18647;SDS011;9453;50.294;18.644;2023-09-19T13:00:36;3.35;;;1.98;;
18647;SDS011;9453;50.294;18.644;2023-09-19T13:03:13;3.72;;;2.70;;
18647;SDS011;9453;50.294;18.644;2023-09-19T13:05:52;5.82;;;2.47;;
18647;SDS011;9453;50.294;18.644;2023-09-19T13:08:21;4.40;;;2.63;;
18647;SDS011;9453;50.294;18.644;2023-09-19T13:11:04;7.10;;;1.52;;
18647;SDS011;9453;50.294;18.644;2023-09-19T13:13:35;6.88;;;2.38;;
18647;SDS011;9453;50.294;18.644;2023-09-19T13:16:03;4.70;;;2.40;;
18647;SDS011;9453;50.294;18.644;2023-09-19T13:18:41;5.43;;;2.05;;
18647;SDS011;9453;50.294;18.644;2023-09-19T13:21:11;5.55;;;2.47;;
18647;SDS011;9453;50.294;18.644;2023-09-19T13:23:49;3.97;;;2.08;;
18647;SDS011;9453;50.294;18.644;2023-09-19T13:26:17;5.00;;;2.65;;
18647;SDS011;9453;50.294;18.644;2023-09-19T13:28:44;6.13;;;2.22;;
18647;SDS011;9453;50.294;18.644;2023-09-19T13:31:13;2.67;;;2.10;;
18647;SDS011;9453;50.294;18.644;2023-09-19T13:33:43;2.72;;;2.00;;
18647;SDS011;9453;50.294;18.644;2023-09-19T13:36:12;5.40;;;2.05;;
18647;SDS011;9453;50.294;18.644;2023-09-19T13:38:39;3.22;;;2.05;;
18647;SDS011;9453;50.294;18.644;2023-09-19T13:41:08;3.70;;;2.22;;
18647;SDS011;9453;50.294;18.644;2023-09-19T13:43:35;2.58;;;1.73;;
18647;SDS011;9453;50.294;18.644;2023-09-19T13:46:02;5.10;;;2.15;;
18647;SDS011;9453;50.294;18.644;2023-09-19T13:48:29;3.38;;;2.25;;
18647;SDS011;9453;50.294;18.644;2023-09-19T13:50:56;3.33;;;1.80;;
18647;SDS011;9453;50.294;18.644;2023-09-19T13:53:24;4.45;;;2.03;;
18647;SDS011;9453;50.294;18.644;2023-09-19T13:55:51;5.18;;;2.03;;
18647;SDS011;9453;50.294;18.644;2023-09-19T13:58:18;4.65;;;2.17;;
18647;SDS011;9453;50.294;18.644;2023-09-19T14:00:46;3.58;;;2.05;;
18647;SDS011;9453;50.294;18.644;2023-09-19T14:03:13;3.67;;;1.98;;
18647;SDS011;9453;50.294;18.644;2023-09-19T14:05:40;4.93;;;2.25;;
18647;SDS011;9453;50.294;18.644;2023-09-19T14:08:08;3.28;;;1.77;;
18647;SDS011;9453;50.294;18.644;2023-09-19T14:10:36;2.85;;;1.77;;
18647;SDS011;9453;50.294;18.644;2023-09-19T14:13:03;6.57;;;1.42;;
18647;SDS011;9453;50.294;18.644;2023-09-19T14:15:30;4.15;;;1.65;;
18647;SDS011;9453;50.294;18.644;2023-09-19T14:18:00;2.95;;;1.67;;
18647;SDS011;9453;50.294;18.644;2023-09-19T14:20:27;6.75;;;1.70;;
18647;SDS011;9453;50.294;18.644;2023-09-19T14:22:55;6.05;;;2.00;;
18647;SDS011;9453;50.294;18.644;2023-09-19T14:25:23;7.47;;;1.80;;
18647;SDS011;9453;50.294;18.644;2023-09-19T14:27:52;2.15;;;1.33;;
18647;SDS011;9453;50.294;18.644;2023-09-19T14:30:19;3.28;;;1.80;;
18647;SDS011;9453;50.294;18.644;2023-09-19T14:32:47;4.13;;;1.45;;
18647;SDS011;9453;50.294;18.644;2023-09-19T14:35:14;3.70;;;1.23;;
18647;SDS011;9453;50.294;18.644;2023-09-19T14:37:42;3.95;;;1.20;;
18647;SDS011;9453;50.294;18.644;2023-09-19T14:40:10;1.58;;;1.10;;
18647;SDS011;9453;50.294;18.644;2023-09-19T14:42:40;4.65;;;1.38;;
18647;SDS011;9453;50.294;18.644;2023-09-19T14:45:10;4.00;;;1.90;;
18647;SDS011;9453;50.294;18.644;2023-09-19T14:47:39;5.53;;;1.30;;
18647;SDS011;9453;50.294;18.644;2023-09-19T14:50:07;1.60;;;1.15;;
18647;SDS011;9453;50.294;18.644;2023-09-19T14:52:34;1.95;;;1.00;;
18647;SDS011;9453;50.294;18.644;2023-09-19T14:55:01;5.13;;;1.25;;
18647;SDS011;9453;50.294;18.644;2023-09-19T14:57:30;2.20;;;1.20;;
18647;SDS011;9453;50.294;18.644;2023-09-19T14:59:57;2.83;;;0.90;;
18647;SDS011;9453;50.294;18.644;2023-09-19T15:02:26;2.83;;;1.00;;
18647;SDS011;9453;50.294;18.644;2023-09-19T15:04:53;1.52;;;0.80;;
18647;SDS011;9453;50.294;18.644;2023-09-19T15:07:20;1.55;;;0.93;;
18647;SDS011;9453;50.294;18.644;2023-09-19T15:09:47;1.85;;;0.95;;
18647;SDS011;9453;50.294;18.644;2023-09-19T15:12:14;1.63;;;1.08;;
18647;SDS011;9453;50.294;18.644;2023-09-19T15:14:42;1.45;;;1.00;;
18647;SDS011;9453;50.294;18.644;2023-09-19T15:17:09;5.25;;;1.35;;
18647;SDS011;9453;50.294;18.644;2023-09-19T15:19:37;2.72;;;0.90;;
18647;SDS011;9453;50.294;18.644;2023-09-19T15:22:04;3.53;;;1.05;;
18647;SDS011;9453;50.294;18.644;2023-09-19T15:24:32;2.60;;;1.20;;
18647;SDS011;9453;50.294;18.644;2023-09-19T15:26:59;5.07;;;1.40;;
18647;SDS011;9453;50.294;18.644;2023-09-19T15:29:26;2.15;;;1.20;;
18647;SDS011;9453;50.294;18.644;2023-09-19T15:31:54;1.95;;;1.10;;
18647;SDS011;9453;50.294;18.644;2023-09-19T15:34:23;1.42;;;0.88;;
18647;SDS011;9453;50.294;18.644;2023-09-19T15:36:52;1.02;;;0.80;;
18647;SDS011;9453;50.294;18.644;2023-09-19T15:39:19;4.22;;;1.00;;
18647;SDS011;9453;50.294;18.644;2023-09-19T15:41:47;2.20;;;1.02;;
18647;SDS011;9453;50.294;18.644;2023-09-19T15:44:17;3.58;;;1.63;;
18647;SDS011;9453;50.294;18.644;2023-09-19T15:46:45;4.00;;;1.80;;
18647;SDS011;9453;50.294;18.644;2023-09-19T15:49:12;3.35;;;1.67;;
18647;SDS011;9453;50.294;18.644;2023-09-19T15:51:39;2.38;;;1.33;;
18647;SDS011;9453;50.294;18.644;2023-09-19T15:54:10;3.17;;;1.65;;
18647;SDS011;9453;50.294;18.644;2023-09-19T15:56:39;1.80;;;1.25;;
18647;SDS011;9453;50.294;18.644;2023-09-19T15:59:07;1.30;;;1.00;;
18647;SDS011;9453;50.294;18.644;2023-09-19T16:01:37;3.35;;;1.70;;
18647;SDS011;9453;50.294;18.644;2023-09-19T16:04:05;2.70;;;1.38;;
18647;SDS011;9453;50.294;18.644;2023-09-19T16:06:35;2.20;;;1.50;;
18647;SDS011;9453;50.294;18.644;2023-09-19T16:09:03;4.93;;;1.40;;
18647;SDS011;9453;50.294;18.644;2023-09-19T16:11:33;3.75;;;1.35;;
18647;SDS011;9453;50.294;18.644;2023-09-19T16:14:01;1.92;;;1.10;;
18647;SDS011;9453;50.294;18.644;2023-09-19T16:16:29;3.60;;;1.80;;
18647;SDS011;9453;50.294;18.644;2023-09-19T16:18:57;1.75;;;1.17;;
18647;SDS011;9453;50.294;18.644;2023-09-19T16:21:26;2.53;;;1.30;;
18647;SDS011;9453;50.294;18.644;2023-09-19T16:23:54;3.30;;;1.55;;
18647;SDS011;9453;50.294;18.644;2023-09-19T16:26:23;2.03;;;1.33;;
18647;SDS011;9453;50.294;18.644;2023-09-19T16:28:52;3.17;;;1.48;;
18647;SDS011;9453;50.294;18.644;2023-09-19T16:31:21;2.15;;;1.42;;
18647;SDS011;9453;50.294;18.644;2023-09-19T16:33:49;3.58;;;1.25;;
18647;SDS011;9453;50.294;18.644;2023-09-19T16:36:16;2.03;;;1.77;;
18647;SDS011;9453;50.294;18.644;2023-09-19T16:38:45;2.75;;;1.50;;
18647;SDS011;9453;50.294;18.644;2023-09-19T16:41:14;2.47;;;1.27;;
18647;SDS011;9453;50.294;18.644;2023-09-19T16:43:42;1.58;;;1.20;;
18647;SDS011;9453;50.294;18.644;2023-09-19T16:46:11;2.13;;;1.70;;
18647;SDS011;9453;50.294;18.644;2023-09-19T16:48:41;2.05;;;1.48;;
18647;SDS011;9453;50.294;18.644;2023-09-19T16:51:10;2.00;;;1.33;;
18647;SDS011;9453;50.294;18.644;2023-09-19T16:53:39;2.53;;;1.30;;
18647;SDS011;9453;50.294;18.644;2023-09-19T16:56:07;5.38;;;1.42;;
18647;SDS011;9453;50.294;18.644;2023-09-19T16:58:35;1.60;;;1.20;;
18647;SDS011;9453;50.294;18.644;2023-09-19T17:01:02;2.45;;;1.77;;
18647;SDS011;9453;50.294;18.644;2023-09-19T17:03:31;3.92;;;1.70;;
18647;SDS011;9453;50.294;18.644;2023-09-19T17:06:00;2.80;;;1.83;;
18647;SDS011;9453;50.294;18.644;2023-09-19T17:08:29;3.20;;;1.83;;
18647;SDS011;9453;50.294;18.644;2023-09-19T17:11:00;2.65;;;1.90;;
18647;SDS011;9453;50.294;18.644;2023-09-19T17:13:28;2.25;;;1.70;;
18647;SDS011;9453;50.294;18.644;2023-09-19T17:16:04;2.78;;;1.92;;
18647;SDS011;9453;50.294;18.644;2023-09-19T17:18:34;2.85;;;1.65;;
18647;SDS011;9453;50.294;18.644;2023-09-19T17:21:02;3.40;;;1.73;;
18647;SDS011;9453;50.294;18.644;2023-09-19T17:23:30;2.33;;;1.83;;
18647;SDS011;9453;50.294;18.644;2023-09-19T17:25:59;4.15;;;1.83;;
18647;SDS011;9453;50.294;18.644;2023-09-19T17:28:27;4.10;;;1.73;;
18647;SDS011;9453;50.294;18.644;2023-09-19T17:30:54;2.60;;;1.80;;
18647;SDS011;9453;50.294;18.644;2023-09-19T17:33:23;2.78;;;2.00;;
18647;SDS011;9453;50.294;18.644;2023-09-19T17:35:52;3.05;;;2.15;;
18647;SDS011;9453;50.294;18.644;2023-09-19T17:38:30;3.38;;;1.98;;
18647;SDS011;9453;50.294;18.644;2023-09-19T17:41:00;2.35;;;1.88;;
18647;SDS011;9453;50.294;18.644;2023-09-19T17:43:28;4.18;;;2.08;;
18647;SDS011;9453;50.294;18.644;2023-09-19T17:45:55;2.92;;;1.80;;
18647;SDS011;9453;50.294;18.644;2023-09-19T17:48:22;2.53;;;2.05;;
18647;SDS011;9453;50.294;18.644;2023-09-19T17:50:59;2.60;;;1.90;;
18647;SDS011;9453;50.294;18.644;2023-09-19T17:53:26;3.35;;;2.10;;
18647;SDS011;9453;50.294;18.644;2023-09-19T17:55:53;3.70;;;2.10;;
18647;SDS011;9453;50.294;18.644;2023-09-19T17:58:20;4.03;;;2.17;;
18647;SDS011;9453;50.294;18.644;2023-09-19T18:00:48;3.20;;;2.13;;
18647;SDS011;9453;50.294;18.644;2023-09-19T18:03:15;3.25;;;2.28;;
18647;SDS011;9453;50.294;18.644;2023-09-19T18:05:43;3.25;;;2.10;;
18647;SDS011;9453;50.294;18.644;2023-09-19T18:08:11;2.55;;;2.10;;
18647;SDS011;9453;50.294;18.644;2023-09-19T18:10:39;3.45;;;2.40;;
18647;SDS011;9453;50.294;18.644;2023-09-19T18:13:06;3.53;;;2.55;;
18647;SDS011;9453;50.294;18.644;2023-09-19T18:15:35;3.20;;;2.00;;
18647;SDS011;9453;50.294;18.644;2023-09-19T18:18:03;3.13;;;2.30;;
18647;SDS011;9453;50.294;18.644;2023-09-19T18:20:32;2.67;;;2.28;;
18647;SDS011;9453;50.294;18.644;2023-09-19T18:23:02;4.65;;;2.90;;
18647;SDS011;9453;50.294;18.644;2023-09-19T18:25:31;3.75;;;2.70;;
18647;SDS011;9453;50.294;18.644;2023-09-19T18:27:58;3.58;;;2.63;;
18647;SDS011;9453;50.294;18.644;2023-09-19T18:30:25;4.13;;;2.80;;
18647;SDS011;9453;50.294;18.644;2023-09-19T18:32:52;7.13;;;2.90;;
18647;SDS011;9453;50.294;18.644;2023-09-19T18:35:21;4.35;;;2.70;;
18647;SDS011;9453;50.294;18.644;2023-09-19T18:37:48;4.70;;;2.80;;
18647;SDS011;9453;50.294;18.644;2023-09-19T18:40:17;5.43;;;3.85;;
18647;SDS011;9453;50.294;18.644;2023-09-19T18:42:45;5.25;;;3.83;;
18647;SDS011;9453;50.294;18.644;2023-09-19T18:45:13;4.63;;;3.08;;
18647;SDS011;9453;50.294;18.644;2023-09-19T18:47:40;5.53;;;3.10;;
18647;SDS011;9453;50.294;18.644;2023-09-19T18:50:07;4.30;;;2.85;;
18647;SDS011;9453;50.294;18.644;2023-09-19T18:52:35;4.65;;;3.20;;
18647;SDS011;9453;50.294;18.644;2023-09-19T18:55:04;4.13;;;3.13;;
18647;SDS011;9453;50.294;18.644;2023-09-19T18:57:34;5.63;;;3.20;;
18647;SDS011;9453;50.294;18.644;2023-09-19T19:00:03;4.68;;;3.67;;
18647;SDS011;9453;50.294;18.644;2023-09-19T19:02:31;6.03;;;3.65;;
18647;SDS011;9453;50.294;18.644;2023-09-19T19:04:58;7.00;;;4.32;;
18647;SDS011;9453;50.294;18.644;2023-09-19T19:07:25;6.57;;;3.85;;
18647;SDS011;9453;50.294;18.644;2023-09-19T19:09:52;5.40;;;3.95;;
18647;SDS011;9453;50.294;18.644;2023-09-19T19:12:20;4.85;;;3.83;;
18647;SDS011;9453;50.294;18.644;2023-09-19T19:14:48;5.60;;;3.88;;